createdAt,value
2016-12-12T00:00:33.891Z,0
2016-12-12T00:01:44.625Z,0
2016-12-12T00:02:55.347Z,0
2016-12-12T00:04:06.105Z,0
2016-12-12T00:05:16.838Z,0
2016-12-12T00:06:27.558Z,0
2016-12-12T00:07:38.317Z,0
2016-12-12T00:08:49.071Z,0
2016-12-12T00:09:59.822Z,0
2016-12-12T00:11:10.596Z,0
2016-12-12T00:12:21.314Z,0
2016-12-12T00:13:32.063Z,0
2016-12-12T00:14:42.819Z,0
2016-12-12T00:15:53.555Z,0
2016-12-12T00:17:04.315Z,0
2016-12-12T00:18:15.057Z,0
2016-12-12T00:19:25.802Z,0
2016-12-12T00:20:36.531Z,0
2016-12-12T00:21:47.259Z,0
2016-12-12T00:22:57.996Z,0
2016-12-12T00:24:08.700Z,0
2016-12-12T00:25:19.458Z,0
2016-12-12T00:26:30.208Z,0
2016-12-12T00:27:41.250Z,0
2016-12-12T00:28:51.984Z,0
2016-12-12T00:30:02.727Z,0
2016-12-12T00:31:13.446Z,0
2016-12-12T00:32:24.189Z,0
2016-12-12T00:33:34.938Z,0
2016-12-12T00:34:45.684Z,0
2016-12-12T00:35:56.409Z,0
2016-12-12T00:37:07.131Z,0
2016-12-12T00:38:17.897Z,0
2016-12-12T00:39:28.649Z,0
2016-12-12T00:40:39.394Z,0
2016-12-12T00:41:50.114Z,0
2016-12-12T00:43:00.874Z,0
2016-12-12T00:44:11.625Z,0
2016-12-12T00:45:22.349Z,0
2016-12-12T00:46:33.095Z,0
2016-12-12T00:47:43.833Z,0
2016-12-12T00:48:54.591Z,0
2016-12-12T00:50:05.287Z,0
2016-12-12T00:51:16.034Z,0
2016-12-12T00:52:26.768Z,0
2016-12-12T00:53:37.504Z,0
2016-12-12T00:54:48.219Z,0
2016-12-12T00:55:58.963Z,0
2016-12-12T00:57:09.709Z,0
2016-12-12T00:58:20.430Z,0
2016-12-12T00:59:31.156Z,0
2016-12-12T01:00:41.854Z,0
2016-12-12T01:01:52.569Z,0
2016-12-12T01:03:03.264Z,0
2016-12-12T01:04:14.003Z,0
2016-12-12T01:05:24.757Z,0
2016-12-12T01:06:35.501Z,0
2016-12-12T01:07:46.245Z,0
2016-12-12T01:08:56.992Z,0
2016-12-12T01:10:07.739Z,0
2016-12-12T01:11:18.762Z,0
2016-12-12T01:12:29.513Z,0
2016-12-12T01:13:40.229Z,0
2016-12-12T01:14:50.955Z,0
2016-12-12T01:16:01.701Z,0
2016-12-12T01:17:12.417Z,0
2016-12-12T01:18:23.139Z,0
2016-12-12T01:19:33.881Z,0
2016-12-12T01:20:44.627Z,0
2016-12-12T01:21:55.368Z,0
2016-12-12T01:23:06.107Z,0
2016-12-12T01:24:17.194Z,0
2016-12-12T01:25:27.894Z,0
2016-12-12T01:26:38.611Z,0
2016-12-12T01:27:49.338Z,0
2016-12-12T01:29:00.060Z,0
2016-12-12T01:30:10.816Z,0
2016-12-12T01:31:21.549Z,0
2016-12-12T01:32:32.284Z,0
2016-12-12T01:33:43.342Z,0
2016-12-12T01:34:54.084Z,0
2016-12-12T01:36:04.839Z,0
2016-12-12T01:37:15.593Z,0
2016-12-12T01:38:26.327Z,0
2016-12-12T01:39:37.071Z,0
2016-12-12T01:40:47.819Z,0
2016-12-12T01:41:58.541Z,0
2016-12-12T01:43:09.301Z,0
2016-12-12T01:44:20.032Z,0
2016-12-12T01:45:30.772Z,0
2016-12-12T01:46:41.496Z,0
2016-12-12T01:47:52.235Z,0
2016-12-12T01:49:02.938Z,0
2016-12-12T01:50:13.703Z,0
2016-12-12T01:51:24.452Z,0
2016-12-12T01:52:35.190Z,0
2016-12-12T01:53:45.897Z,0
2016-12-12T01:54:56.632Z,0
2016-12-12T01:56:07.364Z,0
2016-12-12T01:57:18.091Z,0
2016-12-12T01:58:28.846Z,0
2016-12-12T01:59:39.604Z,0
2016-12-12T02:00:50.324Z,0
2016-12-12T02:02:01.093Z,0
2016-12-12T02:03:11.823Z,0
2016-12-12T02:04:22.586Z,0
2016-12-12T02:05:33.305Z,0
2016-12-12T02:06:44.042Z,0
2016-12-12T02:07:54.748Z,0
2016-12-12T02:09:05.484Z,0
2016-12-12T02:10:16.234Z,0
2016-12-12T02:11:27.006Z,0
2016-12-12T02:12:37.741Z,0
2016-12-12T02:13:48.508Z,0
2016-12-12T02:14:59.269Z,0
2016-12-12T02:16:10.015Z,0
2016-12-12T02:17:20.716Z,0
2016-12-12T02:18:31.457Z,0
2016-12-12T02:19:42.211Z,0
2016-12-12T02:20:52.932Z,0
2016-12-12T02:22:03.668Z,0
2016-12-12T02:23:14.426Z,0
2016-12-12T02:24:25.157Z,0
2016-12-12T02:25:36.211Z,0
2016-12-12T02:26:46.933Z,0
2016-12-12T02:27:57.658Z,0
2016-12-12T02:29:08.480Z,0
2016-12-12T02:30:19.226Z,0
2016-12-12T02:31:29.963Z,0
2016-12-12T02:32:40.710Z,0
2016-12-12T02:33:51.456Z,0
2016-12-12T02:35:02.181Z,0
2016-12-12T02:36:12.902Z,0
2016-12-12T02:37:23.622Z,0
2016-12-12T02:38:34.348Z,0
2016-12-12T02:39:45.072Z,0
2016-12-12T02:40:56.132Z,0
2016-12-12T02:42:06.878Z,0
2016-12-12T02:43:17.594Z,0
2016-12-12T02:44:28.344Z,0
2016-12-12T02:45:39.090Z,0
2016-12-12T02:46:50.140Z,0
2016-12-12T02:48:00.858Z,0
2016-12-12T02:49:11.559Z,0
2016-12-12T02:50:22.283Z,0
2016-12-12T02:51:33.028Z,0
2016-12-12T02:52:43.766Z,0
2016-12-12T02:53:54.513Z,0
2016-12-12T02:55:05.241Z,0
2016-12-12T02:56:15.933Z,0
2016-12-12T02:57:26.660Z,0
2016-12-12T02:58:37.417Z,0
2016-12-12T02:59:48.148Z,0
2016-12-12T03:00:59.169Z,0
2016-12-12T03:02:09.905Z,0
2016-12-12T03:03:20.656Z,0
2016-12-12T03:04:31.381Z,0
2016-12-12T03:05:42.130Z,0
2016-12-12T03:06:52.914Z,0
2016-12-12T03:08:03.665Z,0
2016-12-12T03:09:14.408Z,0
2016-12-12T03:10:25.462Z,0
2016-12-12T03:11:36.178Z,0
2016-12-12T03:12:46.902Z,0
2016-12-12T03:13:57.623Z,0
2016-12-12T03:15:08.340Z,0
2016-12-12T03:16:19.065Z,0
2016-12-12T03:17:29.808Z,0
2016-12-12T03:18:40.563Z,0
2016-12-12T03:19:51.303Z,0
2016-12-12T03:21:02.046Z,0
2016-12-12T03:22:12.762Z,0
2016-12-12T03:23:23.517Z,0
2016-12-12T03:24:34.212Z,0
2016-12-12T03:25:44.933Z,0
2016-12-12T03:26:55.655Z,0
2016-12-12T03:28:06.399Z,0
2016-12-12T03:29:17.143Z,0
2016-12-12T03:30:27.873Z,0
2016-12-12T03:31:38.593Z,0
2016-12-12T03:32:49.338Z,0
2016-12-12T03:34:00.080Z,0
2016-12-12T03:35:10.810Z,0
2016-12-12T03:36:21.547Z,0
2016-12-12T03:37:32.269Z,0
2016-12-12T03:38:43.014Z,0
2016-12-12T03:39:53.765Z,0
2016-12-12T03:41:04.483Z,0
2016-12-12T03:42:15.232Z,0
2016-12-12T03:43:25.973Z,0
2016-12-12T03:44:36.685Z,0
2016-12-12T03:45:47.443Z,0
2016-12-12T03:46:58.235Z,0
2016-12-12T03:48:08.981Z,0
2016-12-12T03:49:19.708Z,0
2016-12-12T03:50:30.453Z,0
2016-12-12T03:51:41.199Z,0
2016-12-12T03:52:51.970Z,0
2016-12-12T03:54:02.711Z,0
2016-12-12T03:55:13.449Z,0
2016-12-12T03:56:24.221Z,0
2016-12-12T03:57:34.974Z,0
2016-12-12T03:58:45.675Z,0
2016-12-12T03:59:56.421Z,0
2016-12-12T04:01:07.166Z,0
2016-12-12T04:02:17.913Z,0
2016-12-12T04:03:28.663Z,0
2016-12-12T04:04:39.405Z,0
2016-12-12T04:05:50.125Z,0
2016-12-12T04:07:00.864Z,0
2016-12-12T04:08:11.610Z,0
2016-12-12T04:09:22.351Z,0
2016-12-12T04:10:33.076Z,0
2016-12-12T04:11:43.808Z,0
2016-12-12T04:12:54.550Z,0
2016-12-12T04:14:05.272Z,0
2016-12-12T04:15:15.989Z,0
2016-12-12T04:16:26.689Z,0
2016-12-12T04:17:37.411Z,0
2016-12-12T04:18:48.178Z,0
2016-12-12T04:19:58.905Z,0
2016-12-12T04:21:09.647Z,0
2016-12-12T04:22:20.365Z,0
2016-12-12T04:23:31.108Z,0
2016-12-12T04:24:41.853Z,0
2016-12-12T04:25:52.607Z,0
2016-12-12T04:27:03.366Z,0
2016-12-12T04:28:14.118Z,0
2016-12-12T04:29:24.818Z,0
2016-12-12T04:30:35.586Z,0
2016-12-12T04:31:46.300Z,0
2016-12-12T04:32:57.045Z,0
2016-12-12T04:34:07.778Z,0
2016-12-12T04:35:18.549Z,0
2016-12-12T04:36:29.312Z,0
2016-12-12T04:37:40.069Z,0
2016-12-12T04:38:51.124Z,0
2016-12-12T04:40:01.882Z,0
2016-12-12T04:41:12.604Z,0
2016-12-12T04:42:23.319Z,0
2016-12-12T04:43:34.048Z,0
2016-12-12T04:44:44.794Z,0
2016-12-12T04:45:55.554Z,0
2016-12-12T04:47:06.302Z,0
2016-12-12T04:48:17.006Z,0
2016-12-12T04:49:27.748Z,0
2016-12-12T04:50:38.483Z,0
2016-12-12T04:51:49.215Z,0
2016-12-12T04:52:59.961Z,0
2016-12-12T04:54:10.695Z,0
2016-12-12T04:55:21.441Z,0
2016-12-12T04:56:32.191Z,0
2016-12-12T04:57:42.915Z,0
2016-12-12T04:58:53.670Z,0
2016-12-12T05:00:04.431Z,0
2016-12-12T05:01:15.163Z,0
2016-12-12T05:02:25.926Z,0
2016-12-12T05:03:36.646Z,0
2016-12-12T05:04:47.667Z,0
2016-12-12T05:05:58.391Z,0
2016-12-12T05:07:09.741Z,0
2016-12-12T05:08:20.500Z,0
2016-12-12T05:09:31.272Z,0
2016-12-12T05:10:42.013Z,0
2016-12-12T05:11:52.771Z,0
2016-12-12T05:13:03.519Z,0
2016-12-12T05:14:14.288Z,0
2016-12-12T05:15:25.033Z,0
2016-12-12T05:16:35.768Z,0
2016-12-12T05:17:46.503Z,0
2016-12-12T05:18:57.229Z,0
2016-12-12T05:20:07.966Z,0
2016-12-12T05:21:19.011Z,0
2016-12-12T05:22:29.735Z,0
2016-12-12T05:23:40.452Z,0
2016-12-12T05:24:51.195Z,0
2016-12-12T05:26:01.919Z,0
2016-12-12T05:27:12.637Z,0
2016-12-12T05:28:23.365Z,0
2016-12-12T05:29:34.123Z,0
2016-12-12T05:30:44.875Z,0
2016-12-12T05:31:55.631Z,0
2016-12-12T05:33:06.370Z,0
2016-12-12T05:34:17.114Z,0
2016-12-12T05:35:27.860Z,0
2016-12-12T05:36:38.613Z,0
2016-12-12T05:37:49.330Z,0
2016-12-12T05:39:00.056Z,0
2016-12-12T05:40:10.776Z,0
2016-12-12T05:41:21.469Z,0
2016-12-12T05:42:32.190Z,0
2016-12-12T05:43:42.911Z,0
2016-12-12T05:44:53.656Z,0
2016-12-12T05:46:04.398Z,0
2016-12-12T05:47:15.151Z,0
2016-12-12T05:48:25.849Z,0
2016-12-12T05:49:36.590Z,0
2016-12-12T05:50:47.330Z,0
2016-12-12T05:51:58.058Z,0
2016-12-12T05:53:08.794Z,0
2016-12-12T05:54:19.530Z,0
2016-12-12T05:55:30.292Z,0
2016-12-12T05:56:41.038Z,0
2016-12-12T05:57:51.762Z,0
2016-12-12T05:59:02.501Z,0
2016-12-12T06:00:13.252Z,0
2016-12-12T06:01:23.979Z,0
2016-12-12T06:02:34.704Z,0
2016-12-12T06:03:45.471Z,0
2016-12-12T06:04:56.196Z,0
2016-12-12T06:06:06.964Z,0
2016-12-12T06:07:17.735Z,0
2016-12-12T06:08:28.494Z,0
2016-12-12T06:09:39.240Z,0
2016-12-12T06:10:49.977Z,0
2016-12-12T06:12:00.720Z,0
2016-12-12T06:13:11.465Z,0
2016-12-12T06:14:22.229Z,0
2016-12-12T06:15:32.928Z,0
2016-12-12T06:16:43.654Z,0
2016-12-12T06:17:54.400Z,0
2016-12-12T06:19:05.120Z,0
2016-12-12T06:20:15.884Z,0
2016-12-12T06:21:26.608Z,0
2016-12-12T06:22:37.346Z,0
2016-12-12T06:23:48.077Z,0
2016-12-12T06:24:58.796Z,0
2016-12-12T06:26:09.518Z,0
2016-12-12T06:27:20.265Z,0
2016-12-12T06:28:31.006Z,0
2016-12-12T06:29:41.752Z,0
2016-12-12T06:30:52.510Z,0
2016-12-12T06:32:03.239Z,0
2016-12-12T06:33:13.995Z,0
2016-12-12T06:34:24.721Z,0
2016-12-12T06:35:35.460Z,0
2016-12-12T06:36:46.186Z,0
2016-12-12T06:37:56.928Z,0
2016-12-12T06:39:07.671Z,0
2016-12-12T06:40:18.412Z,0
2016-12-12T06:41:29.140Z,0
2016-12-12T06:42:39.853Z,0
2016-12-12T06:43:50.587Z,0
2016-12-12T06:45:01.315Z,0
2016-12-12T06:46:12.055Z,0
2016-12-12T06:47:22.777Z,0
2016-12-12T06:48:33.517Z,0
2016-12-12T06:49:44.238Z,0
2016-12-12T06:50:54.999Z,0
2016-12-12T06:52:05.735Z,0
2016-12-12T06:53:16.492Z,0
2016-12-12T06:54:27.217Z,0
2016-12-12T06:55:37.941Z,0
2016-12-12T06:56:48.664Z,0
2016-12-12T06:57:59.376Z,0
2016-12-12T06:59:10.098Z,0
2016-12-12T07:00:20.847Z,0
2016-12-12T07:01:31.576Z,0
2016-12-12T07:02:42.339Z,0
2016-12-12T07:03:53.086Z,5
2016-12-12T07:05:03.840Z,5
2016-12-12T07:06:14.555Z,5
2016-12-12T07:07:25.308Z,10
2016-12-12T07:08:36.048Z,10
2016-12-12T07:09:46.770Z,10
2016-12-12T07:10:57.508Z,10
2016-12-12T07:12:08.261Z,10
2016-12-12T07:13:18.978Z,10
2016-12-12T07:14:29.707Z,10
2016-12-12T07:15:40.426Z,10
2016-12-12T07:16:51.164Z,10
2016-12-12T07:18:01.917Z,10
2016-12-12T07:19:12.634Z,15
2016-12-12T07:20:23.363Z,15
2016-12-12T07:21:34.083Z,10
2016-12-12T07:22:44.801Z,10
2016-12-12T07:23:55.528Z,10
2016-12-12T07:25:06.268Z,15
2016-12-12T07:26:17.010Z,15
2016-12-12T07:27:27.734Z,15
2016-12-12T07:28:38.477Z,20
2016-12-12T07:29:49.209Z,20
2016-12-12T07:30:59.940Z,25
2016-12-12T07:32:10.648Z,20
2016-12-12T07:33:21.391Z,20
2016-12-12T07:34:32.113Z,20
2016-12-12T07:35:42.833Z,25
2016-12-12T07:36:53.562Z,20
2016-12-12T07:38:04.321Z,20
2016-12-12T07:39:15.091Z,25
2016-12-12T07:40:25.870Z,30
2016-12-12T07:41:36.615Z,25
2016-12-12T07:42:47.355Z,35
2016-12-12T07:43:58.104Z,45
2016-12-12T07:45:08.829Z,45
2016-12-12T07:46:19.568Z,45
2016-12-12T07:47:30.310Z,35
2016-12-12T07:48:41.081Z,25
2016-12-12T07:49:51.805Z,30
2016-12-12T07:51:02.548Z,40
2016-12-12T07:52:13.295Z,35
2016-12-12T07:53:24.326Z,40
2016-12-12T07:54:35.074Z,55
2016-12-12T07:55:45.833Z,50
2016-12-12T07:56:56.565Z,45
2016-12-12T07:58:07.287Z,45
2016-12-12T07:59:18.030Z,45
2016-12-12T08:00:28.769Z,45
2016-12-12T08:01:39.516Z,40
2016-12-12T08:02:50.308Z,60
2016-12-12T08:04:01.041Z,75
2016-12-12T08:05:11.807Z,80
2016-12-12T08:06:22.540Z,85
2016-12-12T08:07:33.253Z,65
2016-12-12T08:08:44.000Z,60
2016-12-12T08:09:54.752Z,70
2016-12-12T08:11:05.509Z,80
2016-12-12T08:12:16.234Z,75
2016-12-12T08:13:26.955Z,70
2016-12-12T08:14:37.682Z,80
2016-12-12T08:15:48.428Z,100
2016-12-12T08:16:59.149Z,95
2016-12-12T08:18:09.893Z,110
2016-12-12T08:19:20.628Z,115
2016-12-12T08:20:31.386Z,115
2016-12-12T08:21:42.132Z,90
2016-12-12T08:22:52.880Z,105
2016-12-12T08:24:03.633Z,100
2016-12-12T08:25:14.390Z,70
2016-12-12T08:26:25.169Z,60
2016-12-12T08:27:35.913Z,50
2016-12-12T08:28:46.633Z,40
2016-12-12T08:29:57.374Z,40
2016-12-12T08:31:08.112Z,35
2016-12-12T08:32:18.819Z,30
2016-12-12T08:33:29.537Z,45
2016-12-12T08:34:40.280Z,90
2016-12-12T08:35:51.029Z,125
2016-12-12T08:37:01.747Z,130
2016-12-12T08:38:12.476Z,125
2016-12-12T08:39:23.234Z,125
2016-12-12T08:40:33.967Z,125
2016-12-12T08:41:44.684Z,160
2016-12-12T08:42:55.423Z,150
2016-12-12T08:44:06.158Z,175
2016-12-12T08:45:16.898Z,195
2016-12-12T08:46:27.594Z,235
2016-12-12T08:47:38.336Z,160
2016-12-12T08:48:49.378Z,135
2016-12-12T08:50:00.135Z,100
2016-12-12T08:51:10.854Z,90
2016-12-12T08:52:21.577Z,80
2016-12-12T08:53:32.301Z,70
2016-12-12T08:54:43.059Z,60
2016-12-12T08:55:53.809Z,50
2016-12-12T08:57:04.561Z,50
2016-12-12T08:58:15.280Z,55
2016-12-12T08:59:26.021Z,65
2016-12-12T09:00:36.767Z,105
2016-12-12T09:01:47.508Z,110
2016-12-12T09:02:58.242Z,110
2016-12-12T09:04:09.000Z,115
2016-12-12T09:05:20.357Z,135
2016-12-12T09:06:31.092Z,150
2016-12-12T09:07:41.821Z,150
2016-12-12T09:08:52.564Z,120
2016-12-12T09:10:03.310Z,125
2016-12-12T09:11:14.077Z,115
2016-12-12T09:12:24.812Z,120
2016-12-12T09:13:35.581Z,155
2016-12-12T09:14:46.319Z,165
2016-12-12T09:15:57.023Z,165
2016-12-12T09:17:07.782Z,165
2016-12-12T09:18:18.515Z,155
2016-12-12T09:19:29.281Z,120
2016-12-12T09:20:40.027Z,105
2016-12-12T09:21:50.754Z,100
2016-12-12T09:23:01.495Z,95
2016-12-12T09:24:12.197Z,95
2016-12-12T09:25:22.954Z,95
2016-12-12T09:26:33.704Z,100
2016-12-12T09:27:44.425Z,85
2016-12-12T09:28:55.174Z,80
2016-12-12T09:30:05.917Z,80
2016-12-12T09:31:16.645Z,75
2016-12-12T09:32:27.393Z,65
2016-12-12T09:33:38.155Z,60
2016-12-12T09:34:48.883Z,60
2016-12-12T09:35:59.936Z,60
2016-12-12T09:37:10.668Z,65
2016-12-12T09:38:21.409Z,70
2016-12-12T09:39:32.144Z,80
2016-12-12T09:40:42.863Z,90
2016-12-12T09:41:53.648Z,100
2016-12-12T09:43:04.381Z,95
2016-12-12T09:44:15.100Z,95
2016-12-12T09:45:25.848Z,100
2016-12-12T09:46:36.582Z,100
2016-12-12T09:47:47.340Z,100
2016-12-12T09:48:58.088Z,100
2016-12-12T09:50:08.831Z,95
2016-12-12T09:51:19.548Z,100
2016-12-12T09:52:30.272Z,100
2016-12-12T09:53:40.987Z,105
2016-12-12T09:54:51.720Z,105
2016-12-12T09:56:02.465Z,100
2016-12-12T09:57:13.228Z,100
2016-12-12T09:58:23.946Z,100
2016-12-12T09:59:34.663Z,105
2016-12-12T10:00:45.392Z,125
2016-12-12T10:01:56.134Z,130
2016-12-12T10:03:07.165Z,135
2016-12-12T10:04:17.923Z,155
2016-12-12T10:05:28.668Z,170
2016-12-12T10:06:39.413Z,170
2016-12-12T10:07:50.164Z,160
2016-12-12T10:09:00.892Z,165
2016-12-12T10:10:11.639Z,200
2016-12-12T10:11:22.384Z,225
2016-12-12T10:12:33.123Z,270
2016-12-12T10:13:43.849Z,305
2016-12-12T10:14:54.579Z,330
2016-12-12T10:16:05.315Z,345
2016-12-12T10:17:16.011Z,330
2016-12-12T10:18:26.778Z,380
2016-12-12T10:19:37.502Z,400
2016-12-12T10:20:48.228Z,390
2016-12-12T10:21:58.973Z,375
2016-12-12T10:23:10.016Z,385
2016-12-12T10:24:20.753Z,380
2016-12-12T10:25:31.485Z,375
2016-12-12T10:26:42.220Z,360
2016-12-12T10:27:52.971Z,325
2016-12-12T10:29:03.711Z,280
2016-12-12T10:30:14.734Z,295
2016-12-12T10:31:25.768Z,330
2016-12-12T10:32:36.804Z,295
2016-12-12T10:33:47.521Z,300
2016-12-12T10:34:58.255Z,275
2016-12-12T10:36:08.999Z,270
2016-12-12T10:37:20.039Z,275
2016-12-12T10:38:30.787Z,265
2016-12-12T10:39:41.536Z,235
2016-12-12T10:40:52.236Z,235
2016-12-12T10:42:03.025Z,225
2016-12-12T10:43:13.768Z,235
2016-12-12T10:44:24.560Z,250
2016-12-12T10:45:35.315Z,255
2016-12-12T10:46:46.056Z,280
2016-12-12T10:47:56.777Z,255
2016-12-12T10:49:07.518Z,275
2016-12-12T10:50:18.266Z,275
2016-12-12T10:51:29.016Z,270
2016-12-12T10:52:39.761Z,265
2016-12-12T10:53:50.486Z,260
2016-12-12T10:55:01.198Z,255
2016-12-12T10:56:11.944Z,245
2016-12-12T10:57:22.670Z,235
2016-12-12T10:58:33.394Z,225
2016-12-12T10:59:44.108Z,225
2016-12-12T11:00:55.137Z,215
2016-12-12T11:02:05.884Z,225
2016-12-12T11:03:16.904Z,240
2016-12-12T11:04:27.601Z,235
2016-12-12T11:05:38.326Z,230
2016-12-12T11:06:49.075Z,230
2016-12-12T11:07:59.798Z,230
2016-12-12T11:09:10.539Z,230
2016-12-12T11:10:21.263Z,220
2016-12-12T11:11:32.007Z,210
2016-12-12T11:12:42.751Z,205
2016-12-12T11:13:53.489Z,195
2016-12-12T11:15:04.238Z,190
2016-12-12T11:16:14.959Z,195
2016-12-12T11:17:25.702Z,185
2016-12-12T11:18:36.743Z,185
2016-12-12T11:19:47.474Z,185
2016-12-12T11:20:58.194Z,180
2016-12-12T11:22:08.967Z,180
2016-12-12T11:23:19.989Z,180
2016-12-12T11:24:30.709Z,180
2016-12-12T11:25:41.424Z,180
2016-12-12T11:26:52.152Z,180
2016-12-12T11:28:02.891Z,175
2016-12-12T11:29:13.640Z,175
2016-12-12T11:30:24.365Z,170
2016-12-12T11:31:35.101Z,180
2016-12-12T11:32:46.133Z,185
2016-12-12T11:33:56.906Z,180
2016-12-12T11:35:07.667Z,185
2016-12-12T11:36:18.413Z,180
2016-12-12T11:37:29.140Z,175
2016-12-12T11:38:40.179Z,180
2016-12-12T11:39:50.908Z,175
2016-12-12T11:41:01.628Z,180
2016-12-12T11:42:12.370Z,180
2016-12-12T11:43:23.066Z,180
2016-12-12T11:44:33.798Z,175
2016-12-12T11:45:44.558Z,175
2016-12-12T11:46:55.259Z,175
2016-12-12T11:48:05.976Z,175
2016-12-12T11:49:16.720Z,170
2016-12-12T11:50:27.464Z,175
2016-12-12T11:51:38.196Z,175
2016-12-12T11:52:49.212Z,175
2016-12-12T11:53:59.931Z,175
2016-12-12T11:55:10.669Z,175
2016-12-12T11:56:21.419Z,175
2016-12-12T11:57:32.143Z,175
2016-12-12T11:58:42.868Z,175
2016-12-12T11:59:53.591Z,175
2016-12-12T12:01:04.334Z,170
2016-12-12T12:02:15.075Z,170
2016-12-12T12:03:25.806Z,175
2016-12-12T12:04:36.549Z,170
2016-12-12T12:05:47.287Z,170
2016-12-12T12:06:57.986Z,170
2016-12-12T12:08:08.736Z,170
2016-12-12T12:09:19.453Z,170
2016-12-12T12:10:30.196Z,170
2016-12-12T12:11:40.924Z,170
2016-12-12T12:12:51.683Z,170
2016-12-12T12:14:02.434Z,170
2016-12-12T12:15:13.137Z,170
2016-12-12T12:16:23.876Z,170
2016-12-12T12:17:34.632Z,170
2016-12-12T12:18:45.355Z,165
2016-12-12T12:19:56.092Z,165
2016-12-12T12:21:06.810Z,165
2016-12-12T12:22:17.556Z,165
2016-12-12T12:23:28.309Z,165
2016-12-12T12:24:39.323Z,165
2016-12-12T12:25:50.051Z,165
2016-12-12T12:27:00.772Z,165
2016-12-12T12:28:11.531Z,165
2016-12-12T12:29:22.259Z,165
2016-12-12T12:30:32.956Z,165
2016-12-12T12:31:43.676Z,160
2016-12-12T12:32:54.415Z,160
2016-12-12T12:34:05.152Z,160
2016-12-12T12:35:15.923Z,160
2016-12-12T12:36:26.640Z,160
2016-12-12T12:37:37.364Z,160
2016-12-12T12:38:48.095Z,160
2016-12-12T12:39:58.826Z,160
2016-12-12T12:41:09.573Z,160
2016-12-12T12:42:20.294Z,160
2016-12-12T12:43:31.018Z,155
2016-12-12T12:44:41.763Z,155
2016-12-12T12:45:52.495Z,155
2016-12-12T12:47:03.241Z,155
2016-12-12T12:48:13.987Z,155
2016-12-12T12:49:24.719Z,160
2016-12-12T12:50:35.444Z,155
2016-12-12T12:51:46.179Z,155
2016-12-12T12:52:56.934Z,155
2016-12-12T12:54:07.699Z,150
2016-12-12T12:55:18.438Z,150
2016-12-12T12:56:29.159Z,150
2016-12-12T12:57:39.930Z,150
2016-12-12T12:58:50.680Z,150
2016-12-12T13:00:01.405Z,150
2016-12-12T13:01:12.127Z,150
2016-12-12T13:02:22.851Z,150
2016-12-12T13:03:33.600Z,145
2016-12-12T13:04:44.643Z,145
2016-12-12T13:05:55.363Z,145
2016-12-12T13:07:06.080Z,145
2016-12-12T13:08:16.805Z,145
2016-12-12T13:09:27.528Z,145
2016-12-12T13:10:38.260Z,140
2016-12-12T13:11:48.970Z,140
2016-12-12T13:12:59.702Z,140
2016-12-12T13:14:10.428Z,140
2016-12-12T13:15:21.174Z,140
2016-12-12T13:16:31.894Z,135
2016-12-12T13:17:42.594Z,135
2016-12-12T13:18:53.313Z,135
2016-12-12T13:20:04.032Z,135
2016-12-12T13:21:14.763Z,135
2016-12-12T13:22:25.509Z,135
2016-12-12T13:23:36.225Z,130
2016-12-12T13:24:46.950Z,130
2016-12-12T13:25:57.692Z,130
2016-12-12T13:27:08.445Z,130
2016-12-12T13:28:19.163Z,125
2016-12-12T13:29:29.879Z,125
2016-12-12T13:30:40.624Z,125
2016-12-12T13:31:51.401Z,125
2016-12-12T13:33:02.145Z,125
2016-12-12T13:34:12.884Z,120
2016-12-12T13:35:23.609Z,120
2016-12-12T13:36:34.335Z,120
2016-12-12T13:37:45.097Z,120
2016-12-12T13:38:55.846Z,115
2016-12-12T13:40:06.567Z,115
2016-12-12T13:41:17.317Z,115
2016-12-12T13:42:28.055Z,115
2016-12-12T13:43:38.782Z,110
2016-12-12T13:44:49.501Z,110
2016-12-12T13:46:00.247Z,110
2016-12-12T13:47:10.990Z,110
2016-12-12T13:48:21.707Z,105
2016-12-12T13:49:32.458Z,105
2016-12-12T13:50:43.187Z,105
2016-12-12T13:51:53.945Z,105
2016-12-12T13:53:04.674Z,100
2016-12-12T13:54:15.404Z,100
2016-12-12T13:55:26.137Z,100
2016-12-12T13:56:36.858Z,95
2016-12-12T13:57:47.612Z,95
2016-12-12T13:58:58.330Z,95
2016-12-12T14:00:09.072Z,95
2016-12-12T14:01:19.801Z,90
2016-12-12T14:02:30.545Z,90
2016-12-12T14:03:41.280Z,90
2016-12-12T14:04:52.030Z,85
2016-12-12T14:06:02.776Z,85
2016-12-12T14:07:13.508Z,85
2016-12-12T14:08:24.248Z,85
2016-12-12T14:09:34.989Z,85
2016-12-12T14:10:45.718Z,80
2016-12-12T14:11:56.441Z,80
2016-12-12T14:13:07.161Z,75
2016-12-12T14:14:17.876Z,75
2016-12-12T14:15:28.579Z,75
2016-12-12T14:16:39.343Z,70
2016-12-12T14:17:50.096Z,70
2016-12-12T14:19:00.865Z,70
2016-12-12T14:20:11.603Z,65
2016-12-12T14:21:22.349Z,65
2016-12-12T14:22:33.066Z,60
2016-12-12T14:23:43.811Z,60
2016-12-12T14:24:54.538Z,55
2016-12-12T14:26:05.258Z,55
2016-12-12T14:27:15.975Z,50
2016-12-12T14:28:26.726Z,45
2016-12-12T14:29:37.471Z,45
2016-12-12T14:30:48.217Z,45
2016-12-12T14:31:58.959Z,40
2016-12-12T14:33:09.695Z,40
2016-12-12T14:34:20.441Z,40
2016-12-12T14:35:31.159Z,35
2016-12-12T14:36:41.925Z,35
2016-12-12T14:37:52.663Z,30
2016-12-12T14:39:03.413Z,30
2016-12-12T14:40:14.146Z,30
2016-12-12T14:41:24.868Z,25
2016-12-12T14:42:35.609Z,25
2016-12-12T14:43:46.671Z,25
2016-12-12T14:44:57.372Z,20
2016-12-12T14:46:08.110Z,20
2016-12-12T14:47:18.835Z,20
2016-12-12T14:48:29.584Z,15
2016-12-12T14:49:40.302Z,15
2016-12-12T14:50:51.048Z,15
2016-12-12T14:52:01.773Z,15
2016-12-12T14:53:12.511Z,10
2016-12-12T14:54:23.243Z,10
2016-12-12T14:55:33.979Z,10
2016-12-12T14:56:44.706Z,10
2016-12-12T14:57:55.428Z,10
2016-12-12T14:59:06.148Z,5
2016-12-12T15:00:16.873Z,5
2016-12-12T15:01:27.590Z,5
2016-12-12T15:02:38.340Z,5
2016-12-12T15:03:49.387Z,5
2016-12-12T15:05:00.174Z,5
2016-12-12T15:06:10.899Z,5
2016-12-12T15:07:21.600Z,0
2016-12-12T15:08:32.342Z,0
2016-12-12T15:09:43.066Z,0
2016-12-12T15:10:53.812Z,0
2016-12-12T15:12:04.535Z,0
2016-12-12T15:13:15.266Z,0
2016-12-12T15:14:26.000Z,0
2016-12-12T15:15:36.696Z,0
2016-12-12T15:16:47.433Z,0
2016-12-12T15:17:58.132Z,0
2016-12-12T15:19:08.846Z,0
2016-12-12T15:20:19.603Z,0
2016-12-12T15:21:30.338Z,0
2016-12-12T15:22:41.046Z,0
2016-12-12T15:23:51.762Z,0
2016-12-12T15:25:02.493Z,0
2016-12-12T15:26:13.222Z,0
2016-12-12T15:27:23.950Z,0
2016-12-12T15:28:34.671Z,0
2016-12-12T15:29:45.396Z,0
2016-12-12T15:30:56.416Z,0
2016-12-12T15:32:07.139Z,0
2016-12-12T15:33:17.873Z,0
2016-12-12T15:34:28.626Z,0
2016-12-12T15:35:39.669Z,0
2016-12-12T15:36:50.411Z,0
2016-12-12T15:38:01.461Z,0
2016-12-12T15:39:12.185Z,0
2016-12-12T15:40:22.937Z,0
2016-12-12T15:41:33.675Z,0
2016-12-12T15:42:44.396Z,0
2016-12-12T15:43:55.129Z,0
2016-12-12T15:45:05.883Z,0
2016-12-12T15:46:16.612Z,0
2016-12-12T15:47:27.337Z,0
2016-12-12T15:48:38.075Z,0
2016-12-12T15:49:48.796Z,0
2016-12-12T15:50:59.542Z,0
2016-12-12T15:52:10.267Z,0
2016-12-12T15:53:20.987Z,0
2016-12-12T15:54:32.013Z,0
2016-12-12T15:55:42.746Z,0
2016-12-12T15:56:53.475Z,0
2016-12-12T15:58:04.202Z,0
2016-12-12T15:59:14.944Z,0
2016-12-12T16:00:25.672Z,0
2016-12-12T16:01:36.386Z,0
2016-12-12T16:02:47.122Z,0
2016-12-12T16:03:57.844Z,0
2016-12-12T16:05:08.589Z,0
2016-12-12T16:06:19.323Z,0
2016-12-12T16:07:30.385Z,0
2016-12-12T16:08:41.132Z,0
2016-12-12T16:09:51.853Z,0
2016-12-12T16:11:02.611Z,0
2016-12-12T16:12:13.349Z,0
2016-12-12T16:13:24.091Z,0
2016-12-12T16:14:34.821Z,0
2016-12-12T16:15:45.540Z,0
2016-12-12T16:16:56.275Z,0
2016-12-12T16:18:06.989Z,0
2016-12-12T16:19:17.704Z,0
2016-12-12T16:20:28.426Z,0
2016-12-12T16:21:39.164Z,0
2016-12-12T16:22:49.894Z,0
2016-12-12T16:24:00.613Z,0
2016-12-12T16:25:11.338Z,0
2016-12-12T16:26:22.058Z,0
2016-12-12T16:27:32.823Z,0
2016-12-12T16:28:43.574Z,0
2016-12-12T16:29:54.314Z,0
2016-12-12T16:31:05.015Z,0
2016-12-12T16:32:15.731Z,0
2016-12-12T16:33:26.456Z,0
2016-12-12T16:34:37.182Z,0
2016-12-12T16:35:47.899Z,0
2016-12-12T16:36:58.661Z,0
2016-12-12T16:38:09.396Z,0
2016-12-12T16:39:20.161Z,0
2016-12-12T16:40:30.896Z,0
2016-12-12T16:41:41.653Z,0
2016-12-12T16:42:52.373Z,0
2016-12-12T16:44:03.084Z,0
2016-12-12T16:45:13.830Z,0
2016-12-12T16:46:24.562Z,0
2016-12-12T16:47:35.259Z,0
2016-12-12T16:48:45.976Z,0
2016-12-12T16:49:56.679Z,0
2016-12-12T16:51:07.718Z,0
2016-12-12T16:52:18.444Z,0
2016-12-12T16:53:29.161Z,0
2016-12-12T16:54:39.883Z,0
2016-12-12T16:55:50.627Z,0
2016-12-12T16:57:01.395Z,0
2016-12-12T16:58:12.141Z,0